createdAt,value
2022-12-07T04:35:56.743Z,100.00
2022-12-07T04:39:00.663Z,100.00
2022-12-07T04:42:03.701Z,100.00
2022-12-07T04:45:07.275Z,100.00
2022-12-07T04:48:12.140Z,100.00
2022-12-07T04:51:19.628Z,100.00
2022-12-07T04:54:22.511Z,100.00
2022-12-07T04:57:25.146Z,100.00
2022-12-07T05:00:27.704Z,100.00
2022-12-07T05:03:30.521Z,100.00
2022-12-07T05:06:33.037Z,100.00
2022-12-07T05:09:35.942Z,100.00
2022-12-07T05:12:38.459Z,100.00
2022-12-07T05:15:41.500Z,100.00
2022-12-07T05:18:44.080Z,100.00
2022-12-07T05:21:47.033Z,100.00
2022-12-07T05:24:49.936Z,100.00
2022-12-07T05:27:52.588Z,100.00
2022-12-07T05:30:59.721Z,100.00
2022-12-07T05:34:02.778Z,100.00
2022-12-07T05:37:05.277Z,100.00
2022-12-07T05:40:08.994Z,100.00
2022-12-07T05:43:11.360Z,100.00
2022-12-07T05:46:14.114Z,100.00
2022-12-07T05:49:16.793Z,100.00
2022-12-07T05:52:19.745Z,100.00
2022-12-07T05:55:22.310Z,100.00
2022-12-07T05:58:43.895Z,100.00
2022-12-07T06:01:46.547Z,100.00
2022-12-07T06:04:49.479Z,100.00
2022-12-07T06:07:52.145Z,100.00
2022-12-07T06:11:14.976Z,100.00
2022-12-07T06:14:17.712Z,100.00
2022-12-07T06:17:20.511Z,100.00
2022-12-07T06:20:23.166Z,100.00
2022-12-07T06:23:25.906Z,100.00
2022-12-07T06:26:28.556Z,100.00
2022-12-07T06:29:31.956Z,100.00
2022-12-07T06:32:34.966Z,100.00
2022-12-07T06:35:37.674Z,100.00
2022-12-07T06:38:40.693Z,100.00
2022-12-07T06:41:43.520Z,100.00
2022-12-07T06:44:46.057Z,100.00
2022-12-07T06:47:49.084Z,100.00
2022-12-07T06:50:55.081Z,100.00
2022-12-07T06:53:58.363Z,100.00
2022-12-07T06:57:00.828Z,100.00
2022-12-07T07:00:04.798Z,100.00
2022-12-07T07:03:07.811Z,100.00
2022-12-07T07:06:11.103Z,100.00
2022-12-07T07:09:13.678Z,100.00
2022-12-07T07:12:16.962Z,100.00
2022-12-07T07:15:21.283Z,100.00
2022-12-07T07:18:24.854Z,100.00
2022-12-07T07:21:27.636Z,100.00
2022-12-07T07:24:30.726Z,100.00
2022-12-07T07:27:33.271Z,100.00
2022-12-07T07:30:36.131Z,100.00
2022-12-07T07:33:38.762Z,100.00
2022-12-07T07:36:41.678Z,100.00
2022-12-07T07:39:44.250Z,100.00
2022-12-07T07:42:51.720Z,100.00
2022-12-07T07:45:54.463Z,100.00
2022-12-07T07:48:57.401Z,100.00
2022-12-07T07:51:59.883Z,100.00
2022-12-07T07:55:02.701Z,100.00
2022-12-07T07:58:05.446Z,100.00
2022-12-07T08:01:09.304Z,100.00
2022-12-07T08:04:12.318Z,100.00
2022-12-07T08:07:15.971Z,100.00
2022-12-07T08:10:19.006Z,100.00
2022-12-07T08:13:23.798Z,100.00
2022-12-07T08:16:31.585Z,100.00
2022-12-07T08:19:34.497Z,100.00
2022-12-07T08:22:37.297Z,100.00
2022-12-07T08:25:40.376Z,100.00
2022-12-07T08:28:44.538Z,100.00
2022-12-07T08:31:47.293Z,100.00
2022-12-07T08:34:51.005Z,100.00
2022-12-07T08:37:53.743Z,100.00
2022-12-07T08:41:00.161Z,100.00
2022-12-07T08:44:03.003Z,100.00
2022-12-07T08:47:07.879Z,100.00
2022-12-07T08:50:12.166Z,100.00
2022-12-07T08:53:15.181Z,100.00
2022-12-07T08:56:18.295Z,100.00
2022-12-07T08:59:21.889Z,100.00
2022-12-07T09:02:24.454Z,100.00
2022-12-07T09:05:27.414Z,100.00
2022-12-07T09:08:42.346Z,100.00
2022-12-07T09:11:46.298Z,100.00
2022-12-07T09:14:48.812Z,100.00
2022-12-07T09:17:52.750Z,100.00
2022-12-07T09:20:55.361Z,100.00
2022-12-07T09:23:59.579Z,100.00
2022-12-07T09:27:02.097Z,100.00
2022-12-07T09:30:06.711Z,100.00
2022-12-07T09:33:09.324Z,100.00
2022-12-07T09:36:12.071Z,100.00
2022-12-07T09:39:14.582Z,100.00
2022-12-07T09:42:35.168Z,100.00
2022-12-07T09:45:38.463Z,100.00
2022-12-07T09:48:43.428Z,100.00
2022-12-07T09:51:47.063Z,100.00
2022-12-07T09:54:50.895Z,100.00
2022-12-07T09:57:54.426Z,100.00
2022-12-07T10:01:01.237Z,100.00
2022-12-07T10:04:17.942Z,100.00
2022-12-07T10:07:20.625Z,100.00
2022-12-07T10:10:32.789Z,100.00
2022-12-07T10:13:41.060Z,100.00
2022-12-07T10:16:44.181Z,100.00
2022-12-07T10:19:47.116Z,100.00
2022-12-07T10:22:57.276Z,100.00
2022-12-07T10:25:59.852Z,100.00
2022-12-07T10:29:16.990Z,100.00
2022-12-07T10:32:19.478Z,97.24
2022-12-07T10:35:30.767Z,90.97
2022-12-07T10:38:33.687Z,91.20
2022-12-07T10:41:36.484Z,96.95
2022-12-07T10:44:44.253Z,88.93
2022-12-07T10:48:03.026Z,87.70
2022-12-07T10:51:12.686Z,84.64
2022-12-07T10:54:46.821Z,87.17
2022-12-07T10:58:07.612Z,86.21
2022-12-07T11:01:13.292Z,84.38
2022-12-07T11:04:25.107Z,86.14
2022-12-07T11:07:55.050Z,88.44
2022-12-07T11:11:25.630Z,91.63
2022-12-07T11:14:40.787Z,87.57
2022-12-07T11:17:55.428Z,85.69
2022-12-07T11:21:00.950Z,86.00
2022-12-07T11:24:07.607Z,85.47
2022-12-07T11:27:24.300Z,90.69
2022-12-07T11:30:52.323Z,89.01
2022-12-07T11:34:01.507Z,87.32
2022-12-07T11:37:08.083Z,89.92
2022-12-07T11:40:30.452Z,93.55
2022-12-07T11:43:35.747Z,88.07
2022-12-07T11:47:01.253Z,91.21
2022-12-07T11:50:25.843Z,89.89
2022-12-07T11:53:53.624Z,93.39
2022-12-07T11:57:01.331Z,94.43
2022-12-07T12:00:13.360Z,94.95
2022-12-07T12:03:32.938Z,95.33
2022-12-07T12:06:38.382Z,95.05
2022-12-07T12:10:19.419Z,96.49
2022-12-07T12:17:29.827Z,90.61
2022-12-07T12:21:00.169Z,87.18
2022-12-07T12:24:14.002Z,89.67
2022-12-07T12:27:26.365Z,91.73
2022-12-07T12:30:35.048Z,95.54
2022-12-07T12:33:39.562Z,94.75
2022-12-07T12:36:42.313Z,94.36
2022-12-07T12:40:25.260Z,95.19
2022-12-07T12:43:53.514Z,93.02
2022-12-07T12:47:01.200Z,94.15
2022-12-07T12:50:36.725Z,92.79
2022-12-07T12:53:39.443Z,89.79
2022-12-07T12:56:48.620Z,86.95
2022-12-07T12:59:54.300Z,87.21
2022-12-07T13:03:00.441Z,87.61
2022-12-07T13:06:20.168Z,85.69
2022-12-07T13:09:35.736Z,82.00
2022-12-07T13:12:38.556Z,82.76
2022-12-07T13:15:56.088Z,86.06
2022-12-07T13:18:58.786Z,86.25
2022-12-07T13:22:01.691Z,83.65
2022-12-07T13:25:12.405Z,82.52
2022-12-07T13:28:19.818Z,82.29
2022-12-07T13:31:45.316Z,86.09
2022-12-07T13:34:48.220Z,87.44
2022-12-07T13:37:51.775Z,90.87
2022-12-07T13:41:15.662Z,92.03
2022-12-07T13:44:19.562Z,92.01
2022-12-07T13:47:49.978Z,94.11
2022-12-07T13:50:57.459Z,97.61
2022-12-07T13:54:10.456Z,98.94
2022-12-07T13:57:13.234Z,99.61
2022-12-07T14:00:28.400Z,100.00
2022-12-07T14:03:34.400Z,100.00
2022-12-07T14:06:37.103Z,98.27
2022-12-07T14:09:39.962Z,99.03
2022-12-07T14:12:43.649Z,99.97
2022-12-07T14:15:51.707Z,100.00
2022-12-07T14:18:55.366Z,100.00
2022-12-07T14:22:21.176Z,100.00
2022-12-07T14:25:27.837Z,100.00
2022-12-07T14:28:33.939Z,100.00
2022-12-07T14:31:36.557Z,100.00
2022-12-07T14:34:39.612Z,100.00
2022-12-07T14:37:44.755Z,100.00
2022-12-07T14:40:47.652Z,100.00
2022-12-07T14:44:15.147Z,100.00
2022-12-07T14:50:39.461Z,100.00
2022-12-07T14:53:49.973Z,100.00
2022-12-07T14:56:55.995Z,100.00
2022-12-07T14:59:58.943Z,100.00
2022-12-07T15:03:01.490Z,100.00
2022-12-07T15:06:06.322Z,100.00
2022-12-07T15:09:10.034Z,100.00
2022-12-07T15:12:15.024Z,100.00
2022-12-07T15:15:18.119Z,100.00
2022-12-07T15:18:22.478Z,100.00
2022-12-07T15:21:25.485Z,100.00
2022-12-07T15:24:28.517Z,100.00
2022-12-07T15:27:31.510Z,100.00
2022-12-07T15:30:34.282Z,100.00
2022-12-07T15:33:36.747Z,100.00
2022-12-07T15:36:39.534Z,100.00
2022-12-07T15:39:42.325Z,100.00
2022-12-07T15:42:45.170Z,100.00
2022-12-07T15:45:51.046Z,100.00
2022-12-07T15:48:53.898Z,100.00
2022-12-07T15:51:56.491Z,100.00
2022-12-07T15:55:01.163Z,100.00
2022-12-07T15:58:03.818Z,100.00
2022-12-07T16:01:24.794Z,100.00
2022-12-07T16:04:30.466Z,100.00
2022-12-07T16:07:33.009Z,100.00
2022-12-07T16:10:35.918Z,100.00
2022-12-07T16:13:38.586Z,100.00
2022-12-07T16:16:42.706Z,100.00
2022-12-07T16:19:45.283Z,100.00
2022-12-07T16:22:48.093Z,100.00
2022-12-07T16:25:50.658Z,100.00
2022-12-07T16:28:54.608Z,100.00
2022-12-07T16:31:57.241Z,100.00
